Syracuse, IN

1:21 AM EST on February 08, 2016 (GMT -0500)
APRSWXNET | | Change Station
CLOSE
Current Station
Personal Weather Station
Location: North Webster, IN
Elevation: 951 ft
Nearby Weather Stations

Elev 951 ft 41.36 °N, 85.70 °W | Updated 28 minutes ago

Clear
Clear
34 °F
Feels Like 34 °F
N
3
Wind Variable Wind from WSW
Gusts 8.0 mph

Today
High -- | Low -- °F
--% Chance of Precip.
Yesterday
High -- | Low -- °F
Precip. -- in
Pressure 29.71 in
Visibility 10.0 miles
Clouds Mostly Cloudy 12000 ft
Windchill 34 °F
Dew Point 30 °F
Humidity 86%
Rainfall in
Snow Depth Not available.
7:47 AM 6:07 PM
Waning Crescent, 0% visible
METAR KASW 080615Z AUTO 00000KT 10SM BKN120 00/M01 A2971 RMK AO2
Pressure 29.71 in
Visibility 10.0 miles
Clouds Mostly Cloudy 12000 ft
Windchill 34 °F
Dew Point 30 °F
Humidity 86%
Rainfall in
Snow Depth Not available.
7:47 AM 6:07 PM
Waning Crescent, 0% visible
METAR KASW 080615Z AUTO 00000KT 10SM BKN120 00/M01 A2971 RMK AO2

10-Day Weather Forecast

Almanac

Astronomy

Feb. 08, 2016 Rise Set
Actual Time
Civil Twilight
Nautical Twilight
Astronomical Twilight
Moon
Length of Visible Light
Length of Day
Tomorrow will be .
, % of the Moon is Illuminated

Today's Extremes

State Highs State Lows

Community

WunderPhotos

Upload Photos

1,891,393 photos uploaded!

WunderBlog® & News

Nearby

Air Quality

  Air Quality AQ Index Pollutant
Not available.

Snow Depth

Station Depth Elevation

Earthquake Activity

City Distance Mag. Time & Date
Minimum magnitude displayed is 2.5.

Coastal Water Temperatures

Place Temperature

Stations

Nearby Weather Stations

Station Location Temp. Windchill Dew Point Humidity Wind Precip. Elev Updated Type
                   

Watches & Warnings

There are currently no watches in effect.